CA-0296 weather

CLOSED Kencor Airport
Priddis, Alberta, Canada

Public forecast

Using degrees Celsius for public forecast. Weather courtesy of forecast.io.

Closest aviation weather report (METAR) to Kencor Airport

Closest report is Calgary / Springbank Airport, 11.9 nm (22.0 km) NNW. Retrieved 2019/12/11 08:42 UTC (0 seconds ago):

CYBW 110842Z AUTO 15009KT 3/8SM R35/2400FT/N FZFG VV002 M08/M09 A2979 RMK ICG SLP158

Closest aviation forecast (TAF) to Kencor Airport

Forecast is more than 6 hours old.

Closest forecast is Calgary / Springbank Airport, 11.9 nm (22.0 km) NNW. Retrieved 2019-12-11 00:00 UTC (8 hours ago):

TAF CYBW 102339Z 1100/1105 15005KT P6SM FEW020 BKN220 TEMPO 1100/1103 SCT006 BKN015 BKN220 FM110300 16008KT P6SM SCT006 SCT200 TEMPO 1103/1105 2SM BR OVC006 PROB30 1103/1105 3/4SM BR BKN003 RMK FCST BASED ON AUTO OBS NXT FCST WILL BE ISSUED AT 111245Z